메인 페이지
METAR-TAF:

METAR-TAF

공항 :

비라코푸스 캄피나스 국제공항

캄피나스, 상파울루, 브라질

위도: 23-00S, 경도: 047-08W, 고도: 661m

현재 날씨관측

예보는 33분 전, 21:00시(UTC)에 발표되었습니다.
남동7kt
온도 22°C
습도 43%
기압 1022 hPa
시정 10km 이상
1500m 미만 상공 구름 및 적란운 없음

METAR: SBKP 202100Z 13007KT CAVOK 22/09 Q1022

시각: 18:33 (21:33 UTC)

예보

예보는 5 시간 3분 전, 16:30시(UTC)에 발표되었습니다.
예보 대상 시간: 20일 18시부터 21일 18시까지 (UTC)
남서5kt
시정 10km 이상
1500m 미만 상공 구름 및 적란운 없음
전환 중
20일 19시부터 20일 21시까지 (UTC)
5kt
전환 중
20일 21시부터 20일 23시까지 (UTC)
남남동12kt
전환 중
21일 02시부터 21일 04시까지 (UTC)
동남동15kt
전환 중
21일 10시부터 21일 12시까지 (UTC)
동남동10kt
전환 중
21일 16시부터 21일 18시까지 (UTC)
남서5kt

TAF: SBKP 201630Z 2018/2118 23005KT CAVOK TN12/2109Z TX26/2118Z BECMG 2019/2021 19005KT BECMG 2021/2023 15012KT BECMG 2102/2104 12015KT BECMG 2110/2112 12010KT BECMG 2116/2118 23005KT RMK PHG

4,000개 이상의 공항 관측 자료 및 예보 (METAR 및 TAF 보고).

지도상에서 검색 가능한 기상관측소가 노란 점과 빨간 점으로 표시되어 있습니다.

기상관측소 명을 보려면 표시 위로 마우스를 이동하세요.

날씨 관측과 예보를 보려면 클릭하세요.

지도 변경 : 확대하려면 엑스 표시가 있는 녹색 버튼, 축소하려면 빼기 표시가 있는 녹색 버튼, 다음 페이지의 지도를 보려면 녹색 화살표를 클릭하세요.


METAR-TAF: